sensor_id;sensor_type;location;lat;lon;timestamp;temperature;humidity
9987;DHT22;5033;46.310;11.214;2023-03-11T00:01:17;9.20;99.90
9987;DHT22;5033;46.310;11.214;2023-03-11T00:03:45;9.10;99.90
9987;DHT22;5033;46.310;11.214;2023-03-11T00:06:13;9.10;99.90
9987;DHT22;5033;46.310;11.214;2023-03-11T00:08:40;9.10;99.90
9987;DHT22;5033;46.310;11.214;2023-03-11T00:11:07;9.10;99.90
9987;DHT22;5033;46.310;11.214;2023-03-11T00:13:35;9.00;99.90
9987;DHT22;5033;46.310;11.214;2023-03-11T00:16:02;9.00;99.90
9987;DHT22;5033;46.310;11.214;2023-03-11T00:18:30;9.00;99.90
9987;DHT22;5033;46.310;11.214;2023-03-11T00:20:59;9.00;99.90
9987;DHT22;5033;46.310;11.214;2023-03-11T00:23:27;9.00;99.90
9987;DHT22;5033;46.310;11.214;2023-03-11T00:25:54;9.00;99.90
9987;DHT22;5033;46.310;11.214;2023-03-11T00:28:22;9.00;99.90
9987;DHT22;5033;46.310;11.214;2023-03-11T00:30:51;8.90;99.90
9987;DHT22;5033;46.310;11.214;2023-03-11T00:33:18;8.90;99.90
9987;DHT22;5033;46.310;11.214;2023-03-11T00:35:45;8.90;99.90
9987;DHT22;5033;46.310;11.214;2023-03-11T00:38:15;8.90;99.90
9987;DHT22;5033;46.310;11.214;2023-03-11T00:40:43;8.90;99.90
9987;DHT22;5033;46.310;11.214;2023-03-11T00:43:10;8.90;99.90
9987;DHT22;5033;46.310;11.214;2023-03-11T00:45:37;8.90;99.90
9987;DHT22;5033;46.310;11.214;2023-03-11T00:48:05;8.90;99.90
9987;DHT22;5033;46.310;11.214;2023-03-11T00:50:33;8.90;99.90
9987;DHT22;5033;46.310;11.214;2023-03-11T00:53:02;8.80;99.90
9987;DHT22;5033;46.310;11.214;2023-03-11T00:55:32;8.80;99.90
9987;DHT22;5033;46.310;11.214;2023-03-11T00:58:02;8.80;99.90
9987;DHT22;5033;46.310;11.214;2023-03-11T01:00:30;8.70;99.90
9987;DHT22;5033;46.310;11.214;2023-03-11T01:02:58;8.70;99.90
9987;DHT22;5033;46.310;11.214;2023-03-11T01:05:28;8.70;99.90
9987;DHT22;5033;46.310;11.214;2023-03-11T01:07:55;8.70;99.90
9987;DHT22;5033;46.310;11.214;2023-03-11T01:10:23;8.70;99.90
9987;DHT22;5033;46.310;11.214;2023-03-11T01:12:51;8.60;99.90
9987;DHT22;5033;46.310;11.214;2023-03-11T01:15:21;8.60;99.90
9987;DHT22;5033;46.310;11.214;2023-03-11T01:17:48;8.60;99.90
9987;DHT22;5033;46.310;11.214;2023-03-11T01:20:15;8.60;99.90
9987;DHT22;5033;46.310;11.214;2023-03-11T01:22:42;8.60;99.90
9987;DHT22;5033;46.310;11.214;2023-03-11T01:25:11;8.50;99.90
9987;DHT22;5033;46.310;11.214;2023-03-11T01:27:39;8.50;99.90
9987;DHT22;5033;46.310;11.214;2023-03-11T01:30:12;8.50;99.90
9987;DHT22;5033;46.310;11.214;2023-03-11T01:32:39;8.40;99.90
9987;DHT22;5033;46.310;11.214;2023-03-11T01:35:08;8.30;99.90
9987;DHT22;5033;46.310;11.214;2023-03-11T01:37:35;8.40;99.90
9987;DHT22;5033;46.310;11.214;2023-03-11T01:40:03;8.30;99.90
9987;DHT22;5033;46.310;11.214;2023-03-11T01:42:31;8.30;99.90
9987;DHT22;5033;46.310;11.214;2023-03-11T01:44:58;8.30;99.90
9987;DHT22;5033;46.310;11.214;2023-03-11T01:47:47;8.20;99.90
9987;DHT22;5033;46.310;11.214;2023-03-11T01:50:15;8.20;99.90
9987;DHT22;5033;46.310;11.214;2023-03-11T01:52:43;8.20;99.90
9987;DHT22;5033;46.310;11.214;2023-03-11T01:55:12;8.10;99.90
9987;DHT22;5033;46.310;11.214;2023-03-11T01:57:41;8.10;99.90
9987;DHT22;5033;46.310;11.214;2023-03-11T02:00:11;8.00;99.90
9987;DHT22;5033;46.310;11.214;2023-03-11T02:02:41;8.00;99.90
9987;DHT22;5033;46.310;11.214;2023-03-11T02:05:10;8.00;99.90
9987;DHT22;5033;46.310;11.214;2023-03-11T02:07:38;8.00;99.90
9987;DHT22;5033;46.310;11.214;2023-03-11T02:10:06;8.00;99.90
9987;DHT22;5033;46.310;11.214;2023-03-11T02:12:35;8.00;99.90
9987;DHT22;5033;46.310;11.214;2023-03-11T02:15:04;8.00;99.90
9987;DHT22;5033;46.310;11.214;2023-03-11T02:17:33;8.00;99.90
9987;DHT22;5033;46.310;11.214;2023-03-11T02:20:22;8.00;99.90
9987;DHT22;5033;46.310;11.214;2023-03-11T02:22:54;7.90;99.90
9987;DHT22;5033;46.310;11.214;2023-03-11T02:25:27;7.90;99.90
9987;DHT22;5033;46.310;11.214;2023-03-11T02:27:58;7.90;99.90
9987;DHT22;5033;46.310;11.214;2023-03-11T02:30:27;7.80;99.90
9987;DHT22;5033;46.310;11.214;2023-03-11T02:32:55;7.80;99.90
9987;DHT22;5033;46.310;11.214;2023-03-11T02:35:23;7.70;99.90
9987;DHT22;5033;46.310;11.214;2023-03-11T02:37:51;7.60;99.90
9987;DHT22;5033;46.310;11.214;2023-03-11T02:40:45;7.60;99.90
9987;DHT22;5033;46.310;11.214;2023-03-11T02:43:17;7.60;99.90
9987;DHT22;5033;46.310;11.214;2023-03-11T02:45:46;7.60;99.90
9987;DHT22;5033;46.310;11.214;2023-03-11T02:48:14;7.60;99.90
9987;DHT22;5033;46.310;11.214;2023-03-11T02:50:43;7.60;99.90
9987;DHT22;5033;46.310;11.214;2023-03-11T02:53:11;7.60;99.90
9987;DHT22;5033;46.310;11.214;2023-03-11T02:55:38;7.60;99.90
9987;DHT22;5033;46.310;11.214;2023-03-11T02:58:05;7.60;99.90
9987;DHT22;5033;46.310;11.214;2023-03-11T03:00:34;7.60;99.90
9987;DHT22;5033;46.310;11.214;2023-03-11T03:03:01;7.60;99.90
9987;DHT22;5033;46.310;11.214;2023-03-11T03:05:28;7.60;99.90
9987;DHT22;5033;46.310;11.214;2023-03-11T03:07:55;7.60;99.90
9987;DHT22;5033;46.310;11.214;2023-03-11T03:10:22;7.70;99.90
9987;DHT22;5033;46.310;11.214;2023-03-11T03:12:49;7.70;99.90
9987;DHT22;5033;46.310;11.214;2023-03-11T03:15:16;7.60;99.90
9987;DHT22;5033;46.310;11.214;2023-03-11T03:17:45;7.60;99.90
9987;DHT22;5033;46.310;11.214;2023-03-11T03:20:13;7.70;99.90
9987;DHT22;5033;46.310;11.214;2023-03-11T03:22:40;7.70;99.90
9987;DHT22;5033;46.310;11.214;2023-03-11T03:25:09;7.70;99.90
9987;DHT22;5033;46.310;11.214;2023-03-11T03:27:36;7.70;99.90
9987;DHT22;5033;46.310;11.214;2023-03-11T03:30:04;7.70;99.90
9987;DHT22;5033;46.310;11.214;2023-03-11T03:32:32;7.70;99.90
9987;DHT22;5033;46.310;11.214;2023-03-11T03:35:00;7.70;99.90
9987;DHT22;5033;46.310;11.214;2023-03-11T03:37:28;7.70;99.90
9987;DHT22;5033;46.310;11.214;2023-03-11T03:39:58;7.70;99.90
9987;DHT22;5033;46.310;11.214;2023-03-11T03:42:26;7.70;99.90
9987;DHT22;5033;46.310;11.214;2023-03-11T03:44:53;7.60;99.90
9987;DHT22;5033;46.310;11.214;2023-03-11T03:47:21;7.60;99.90
9987;DHT22;5033;46.310;11.214;2023-03-11T03:49:48;7.50;99.90
9987;DHT22;5033;46.310;11.214;2023-03-11T03:52:16;7.50;99.90
9987;DHT22;5033;46.310;11.214;2023-03-11T03:54:44;7.50;99.90
9987;DHT22;5033;46.310;11.214;2023-03-11T03:57:11;7.50;99.90
9987;DHT22;5033;46.310;11.214;2023-03-11T03:59:38;7.50;99.90
9987;DHT22;5033;46.310;11.214;2023-03-11T04:02:05;7.60;99.90
9987;DHT22;5033;46.310;11.214;2023-03-11T04:04:32;7.60;99.90
9987;DHT22;5033;46.310;11.214;2023-03-11T04:06:59;7.50;99.90
9987;DHT22;5033;46.310;11.214;2023-03-11T04:09:28;7.50;99.90
9987;DHT22;5033;46.310;11.214;2023-03-11T04:11:55;7.60;99.90
9987;DHT22;5033;46.310;11.214;2023-03-11T04:14:22;7.70;99.90
9987;DHT22;5033;46.310;11.214;2023-03-11T04:16:50;7.70;99.90
9987;DHT22;5033;46.310;11.214;2023-03-11T04:19:17;7.80;99.90
9987;DHT22;5033;46.310;11.214;2023-03-11T04:21:44;7.70;99.90
9987;DHT22;5033;46.310;11.214;2023-03-11T04:24:11;7.70;99.90
9987;DHT22;5033;46.310;11.214;2023-03-11T04:26:40;7.70;99.90
9987;DHT22;5033;46.310;11.214;2023-03-11T04:29:07;7.60;99.90
9987;DHT22;5033;46.310;11.214;2023-03-11T04:31:34;7.60;99.90
9987;DHT22;5033;46.310;11.214;2023-03-11T04:34:01;7.60;99.90
9987;DHT22;5033;46.310;11.214;2023-03-11T04:36:28;7.70;99.90
9987;DHT22;5033;46.310;11.214;2023-03-11T04:38:56;7.70;99.90
9987;DHT22;5033;46.310;11.214;2023-03-11T04:41:23;7.80;99.90
9987;DHT22;5033;46.310;11.214;2023-03-11T04:43:51;7.80;99.90
9987;DHT22;5033;46.310;11.214;2023-03-11T04:46:18;7.80;99.90
9987;DHT22;5033;46.310;11.214;2023-03-11T04:48:45;7.90;99.90
9987;DHT22;5033;46.310;11.214;2023-03-11T04:51:12;7.90;99.90
9987;DHT22;5033;46.310;11.214;2023-03-11T04:53:40;7.90;99.90
9987;DHT22;5033;46.310;11.214;2023-03-11T04:56:07;8.00;99.90
9987;DHT22;5033;46.310;11.214;2023-03-11T04:58:34;8.00;99.90
9987;DHT22;5033;46.310;11.214;2023-03-11T05:01:02;7.90;99.90
9987;DHT22;5033;46.310;11.214;2023-03-11T05:03:29;7.80;99.90
9987;DHT22;5033;46.310;11.214;2023-03-11T05:05:57;7.80;99.90
9987;DHT22;5033;46.310;11.214;2023-03-11T05:08:25;7.80;99.90
9987;DHT22;5033;46.310;11.214;2023-03-11T05:10:52;7.70;99.90
9987;DHT22;5033;46.310;11.214;2023-03-11T05:13:19;7.70;99.90
9987;DHT22;5033;46.310;11.214;2023-03-11T05:15:46;7.70;99.90
9987;DHT22;5033;46.310;11.214;2023-03-11T05:18:15;7.70;99.90
9987;DHT22;5033;46.310;11.214;2023-03-11T05:20:42;7.70;99.90
9987;DHT22;5033;46.310;11.214;2023-03-11T05:23:09;7.70;99.90
9987;DHT22;5033;46.310;11.214;2023-03-11T05:25:37;7.80;99.90
9987;DHT22;5033;46.310;11.214;2023-03-11T05:28:04;7.80;99.90
9987;DHT22;5033;46.310;11.214;2023-03-11T05:30:31;7.90;99.90
9987;DHT22;5033;46.310;11.214;2023-03-11T05:32:58;7.90;99.90
9987;DHT22;5033;46.310;11.214;2023-03-11T05:35:27;7.90;99.90
9987;DHT22;5033;46.310;11.214;2023-03-11T05:37:54;7.90;99.90
9987;DHT22;5033;46.310;11.214;2023-03-11T05:40:21;7.90;99.90
9987;DHT22;5033;46.310;11.214;2023-03-11T05:42:48;7.80;99.90
9987;DHT22;5033;46.310;11.214;2023-03-11T05:45:16;7.80;99.90
9987;DHT22;5033;46.310;11.214;2023-03-11T05:47:43;7.70;99.90
9987;DHT22;5033;46.310;11.214;2023-03-11T05:50:11;7.70;99.90
9987;DHT22;5033;46.310;11.214;2023-03-11T05:52:39;7.70;99.90
9987;DHT22;5033;46.310;11.214;2023-03-11T05:55:07;7.60;99.90
9987;DHT22;5033;46.310;11.214;2023-03-11T05:57:36;7.60;99.90
9987;DHT22;5033;46.310;11.214;2023-03-11T06:00:04;7.60;99.90
9987;DHT22;5033;46.310;11.214;2023-03-11T06:02:37;7.60;99.90
9987;DHT22;5033;46.310;11.214;2023-03-11T06:05:05;7.60;99.90
9987;DHT22;5033;46.310;11.214;2023-03-11T06:07:33;7.60;99.90
9987;DHT22;5033;46.310;11.214;2023-03-11T06:10:02;7.70;99.90
9987;DHT22;5033;46.310;11.214;2023-03-11T06:12:29;7.70;99.90
9987;DHT22;5033;46.310;11.214;2023-03-11T06:14:56;7.70;99.90
9987;DHT22;5033;46.310;11.214;2023-03-11T06:17:23;7.70;99.90
9987;DHT22;5033;46.310;11.214;2023-03-11T06:19:50;7.70;99.90
9987;DHT22;5033;46.310;11.214;2023-03-11T06:22:17;7.70;99.90
9987;DHT22;5033;46.310;11.214;2023-03-11T06:24:44;7.70;99.90
9987;DHT22;5033;46.310;11.214;2023-03-11T06:27:13;7.70;99.90
9987;DHT22;5033;46.310;11.214;2023-03-11T06:29:40;7.70;99.90
9987;DHT22;5033;46.310;11.214;2023-03-11T06:32:07;7.80;99.90
9987;DHT22;5033;46.310;11.214;2023-03-11T06:34:34;7.80;99.90
9987;DHT22;5033;46.310;11.214;2023-03-11T06:37:02;7.90;99.90
9987;DHT22;5033;46.310;11.214;2023-03-11T06:39:29;8.50;99.90
9987;DHT22;5033;46.310;11.214;2023-03-11T06:41:56;9.50;99.90
9987;DHT22;5033;46.310;11.214;2023-03-11T06:44:24;10.40;99.90
9987;DHT22;5033;46.310;11.214;2023-03-11T06:46:51;11.20;99.90
9987;DHT22;5033;46.310;11.214;2023-03-11T06:49:18;11.90;99.90
9987;DHT22;5033;46.310;11.214;2023-03-11T06:51:45;12.60;99.90
9987;DHT22;5033;46.310;11.214;2023-03-11T06:54:12;13.00;99.90
9987;DHT22;5033;46.310;11.214;2023-03-11T06:56:39;13.40;99.90
9987;DHT22;5033;46.310;11.214;2023-03-11T06:59:06;13.60;99.90
9987;DHT22;5033;46.310;11.214;2023-03-11T07:01:35;13.90;99.90
9987;DHT22;5033;46.310;11.214;2023-03-11T07:04:02;14.30;99.90
9987;DHT22;5033;46.310;11.214;2023-03-11T07:06:29;14.70;99.90
9987;DHT22;5033;46.310;11.214;2023-03-11T07:08:56;14.90;99.90
9987;DHT22;5033;46.310;11.214;2023-03-11T07:11:24;15.30;99.90
9987;DHT22;5033;46.310;11.214;2023-03-11T07:13:53;15.50;99.90
9987;DHT22;5033;46.310;11.214;2023-03-11T07:16:21;15.70;99.90
9987;DHT22;5033;46.310;11.214;2023-03-11T07:18:51;15.80;99.90
9987;DHT22;5033;46.310;11.214;2023-03-11T07:21:20;15.90;99.90
9987;DHT22;5033;46.310;11.214;2023-03-11T07:23:48;16.10;99.90
9987;DHT22;5033;46.310;11.214;2023-03-11T07:26:17;16.30;99.90
9987;DHT22;5033;46.310;11.214;2023-03-11T07:28:44;16.20;99.90
9987;DHT22;5033;46.310;11.214;2023-03-11T07:31:14;16.30;99.90
9987;DHT22;5033;46.310;11.214;2023-03-11T07:33:42;16.50;99.90
9987;DHT22;5033;46.310;11.214;2023-03-11T07:36:12;16.50;99.90
9987;DHT22;5033;46.310;11.214;2023-03-11T07:38:40;16.40;99.90
9987;DHT22;5033;46.310;11.214;2023-03-11T07:41:08;16.30;99.90
9987;DHT22;5033;46.310;11.214;2023-03-11T07:43:36;16.50;99.90
9987;DHT22;5033;46.310;11.214;2023-03-11T07:46:05;16.90;99.90
9987;DHT22;5033;46.310;11.214;2023-03-11T07:48:32;17.30;99.90
9987;DHT22;5033;46.310;11.214;2023-03-11T07:51:04;17.60;99.90
9987;DHT22;5033;46.310;11.214;2023-03-11T07:53:33;17.80;99.90
9987;DHT22;5033;46.310;11.214;2023-03-11T07:56:01;18.00;99.90
9987;DHT22;5033;46.310;11.214;2023-03-11T07:58:29;18.30;99.90
9987;DHT22;5033;46.310;11.214;2023-03-11T08:01:01;18.50;99.90
9987;DHT22;5033;46.310;11.214;2023-03-11T08:03:29;18.70;99.90
9987;DHT22;5033;46.310;11.214;2023-03-11T08:05:56;18.80;99.90
9987;DHT22;5033;46.310;11.214;2023-03-11T08:08:23;19.10;98.50
9987;DHT22;5033;46.310;11.214;2023-03-11T08:10:52;18.90;99.90
9987;DHT22;5033;46.310;11.214;2023-03-11T08:13:19;19.00;99.90
9987;DHT22;5033;46.310;11.214;2023-03-11T08:15:46;19.30;99.90
9987;DHT22;5033;46.310;11.214;2023-03-11T08:18:13;19.40;97.60
9987;DHT22;5033;46.310;11.214;2023-03-11T08:20:40;19.50;96.70
9987;DHT22;5033;46.310;11.214;2023-03-11T08:23:09;19.60;95.20
9987;DHT22;5033;46.310;11.214;2023-03-11T08:25:38;19.30;95.00
9987;DHT22;5033;46.310;11.214;2023-03-11T08:28:07;19.20;93.70
9987;DHT22;5033;46.310;11.214;2023-03-11T08:30:34;19.00;93.10
9987;DHT22;5033;46.310;11.214;2023-03-11T08:33:02;18.80;93.20
9987;DHT22;5033;46.310;11.214;2023-03-11T08:35:30;18.70;93.50
9987;DHT22;5033;46.310;11.214;2023-03-11T08:37:57;18.80;93.10
9987;DHT22;5033;46.310;11.214;2023-03-11T08:40:24;19.00;93.10
9987;DHT22;5033;46.310;11.214;2023-03-11T08:42:51;18.80;93.10
9987;DHT22;5033;46.310;11.214;2023-03-11T08:45:19;18.70;92.80
9987;DHT22;5033;46.310;11.214;2023-03-11T08:47:46;19.00;92.80
9987;DHT22;5033;46.310;11.214;2023-03-11T08:50:15;19.50;92.20
9987;DHT22;5033;46.310;11.214;2023-03-11T08:52:43;20.00;91.90
9987;DHT22;5033;46.310;11.214;2023-03-11T08:55:13;20.70;91.30
9987;DHT22;5033;46.310;11.214;2023-03-11T08:57:42;21.20;90.20
9987;DHT22;5033;46.310;11.214;2023-03-11T09:00:10;21.10;88.70
9987;DHT22;5033;46.310;11.214;2023-03-11T09:02:39;21.10;85.90
9987;DHT22;5033;46.310;11.214;2023-03-11T09:05:08;20.80;86.00
9987;DHT22;5033;46.310;11.214;2023-03-11T09:07:35;20.40;84.70
9987;DHT22;5033;46.310;11.214;2023-03-11T09:10:03;20.50;85.90
9987;DHT22;5033;46.310;11.214;2023-03-11T09:12:30;20.70;82.60
9987;DHT22;5033;46.310;11.214;2023-03-11T09:14:57;20.60;80.80
9987;DHT22;5033;46.310;11.214;2023-03-11T09:17:24;20.20;80.40
9987;DHT22;5033;46.310;11.214;2023-03-11T09:19:53;20.30;82.60
9987;DHT22;5033;46.310;11.214;2023-03-11T09:22:20;20.40;80.80
9987;DHT22;5033;46.310;11.214;2023-03-11T09:24:47;20.30;80.20
9987;DHT22;5033;46.310;11.214;2023-03-11T09:27:14;20.70;78.90
9987;DHT22;5033;46.310;11.214;2023-03-11T09:29:41;20.90;75.60
9987;DHT22;5033;46.310;11.214;2023-03-11T09:32:11;20.70;78.60
9987;DHT22;5033;46.310;11.214;2023-03-11T09:34:39;20.60;76.70
9987;DHT22;5033;46.310;11.214;2023-03-11T09:37:07;20.60;76.00
9987;DHT22;5033;46.310;11.214;2023-03-11T09:39:35;20.60;77.50
9987;DHT22;5033;46.310;11.214;2023-03-11T09:42:13;20.70;77.00
9987;DHT22;5033;46.310;11.214;2023-03-11T09:44:44;20.70;73.10
9987;DHT22;5033;46.310;11.214;2023-03-11T09:47:35;20.90;72.00
9987;DHT22;5033;46.310;11.214;2023-03-11T09:50:24;20.80;66.40
9987;DHT22;5033;46.310;11.214;2023-03-11T09:53:01;20.00;67.80
9987;DHT22;5033;46.310;11.214;2023-03-11T09:55:33;19.70;71.00
9987;DHT22;5033;46.310;11.214;2023-03-11T09:58:07;19.50;70.90
9987;DHT22;5033;46.310;11.214;2023-03-11T10:00:36;19.40;69.70
9987;DHT22;5033;46.310;11.214;2023-03-11T10:03:06;19.20;69.50
9987;DHT22;5033;46.310;11.214;2023-03-11T10:05:37;19.40;69.10
9987;DHT22;5033;46.310;11.214;2023-03-11T10:08:13;19.50;68.00
9987;DHT22;5033;46.310;11.214;2023-03-11T10:10:46;19.60;70.30
9987;DHT22;5033;46.310;11.214;2023-03-11T10:13:21;19.70;68.90
9987;DHT22;5033;46.310;11.214;2023-03-11T10:15:54;20.10;66.40
9987;DHT22;5033;46.310;11.214;2023-03-11T10:18:34;20.60;68.90
9987;DHT22;5033;46.310;11.214;2023-03-11T10:21:08;20.90;66.20
9987;DHT22;5033;46.310;11.214;2023-03-11T10:23:52;20.90;65.70
9987;DHT22;5033;46.310;11.214;2023-03-11T10:26:22;21.10;63.90
9987;DHT22;5033;46.310;11.214;2023-03-11T10:28:56;21.20;64.50
9987;DHT22;5033;46.310;11.214;2023-03-11T10:31:28;21.40;63.60
9987;DHT22;5033;46.310;11.214;2023-03-11T10:33:59;21.60;63.60
9987;DHT22;5033;46.310;11.214;2023-03-11T10:36:33;21.80;63.30
9987;DHT22;5033;46.310;11.214;2023-03-11T10:39:03;21.90;63.20
9987;DHT22;5033;46.310;11.214;2023-03-11T10:41:41;22.00;62.40
9987;DHT22;5033;46.310;11.214;2023-03-11T10:44:13;22.10;61.40
9987;DHT22;5033;46.310;11.214;2023-03-11T10:46:41;22.10;61.20
9987;DHT22;5033;46.310;11.214;2023-03-11T10:49:13;22.10;59.80
9987;DHT22;5033;46.310;11.214;2023-03-11T10:51:42;22.00;58.60
9987;DHT22;5033;46.310;11.214;2023-03-11T10:54:22;21.50;58.30
9987;DHT22;5033;46.310;11.214;2023-03-11T10:56:53;21.30;58.20
9987;DHT22;5033;46.310;11.214;2023-03-11T10:59:25;21.10;56.70
9987;DHT22;5033;46.310;11.214;2023-03-11T11:01:53;21.20;61.20
9987;DHT22;5033;46.310;11.214;2023-03-11T11:04:35;21.50;60.70
9987;DHT22;5033;46.310;11.214;2023-03-11T11:07:28;21.70;58.10
9987;DHT22;5033;46.310;11.214;2023-03-11T11:10:15;21.30;55.60
9987;DHT22;5033;46.310;11.214;2023-03-11T11:12:54;21.20;59.10
9987;DHT22;5033;46.310;11.214;2023-03-11T11:15:23;21.50;57.50
9987;DHT22;5033;46.310;11.214;2023-03-11T11:17:51;21.20;57.20
9987;DHT22;5033;46.310;11.214;2023-03-11T11:20:21;20.80;57.70
9987;DHT22;5033;46.310;11.214;2023-03-11T11:22:51;20.90;58.00
9987;DHT22;5033;46.310;11.214;2023-03-11T11:25:34;20.70;58.20
9987;DHT22;5033;46.310;11.214;2023-03-11T11:28:14;20.60;57.00
9987;DHT22;5033;46.310;11.214;2023-03-11T11:30:52;20.60;56.70
9987;DHT22;5033;46.310;11.214;2023-03-11T11:33:22;20.50;58.10
9987;DHT22;5033;46.310;11.214;2023-03-11T11:35:52;20.50;57.30
9987;DHT22;5033;46.310;11.214;2023-03-11T11:38:21;20.50;56.20
9987;DHT22;5033;46.310;11.214;2023-03-11T11:40:52;20.50;57.40
9987;DHT22;5033;46.310;11.214;2023-03-11T11:43:26;20.20;57.20
9987;DHT22;5033;46.310;11.214;2023-03-11T11:46:01;20.30;57.30
9987;DHT22;5033;46.310;11.214;2023-03-11T11:48:36;20.40;56.30
9987;DHT22;5033;46.310;11.214;2023-03-11T11:51:12;20.50;56.30
9987;DHT22;5033;46.310;11.214;2023-03-11T11:53:45;20.70;56.50
9987;DHT22;5033;46.310;11.214;2023-03-11T11:56:15;20.80;56.00
9987;DHT22;5033;46.310;11.214;2023-03-11T11:58:42;20.90;55.80
9987;DHT22;5033;46.310;11.214;2023-03-11T12:01:14;20.90;55.80
9987;DHT22;5033;46.310;11.214;2023-03-11T12:07:00;21.30;55.60
9987;DHT22;5033;46.310;11.214;2023-03-11T12:09:35;21.20;54.20
9987;DHT22;5033;46.310;11.214;2023-03-11T12:12:15;21.10;55.40
9987;DHT22;5033;46.310;11.214;2023-03-11T12:14:48;20.90;54.80
9987;DHT22;5033;46.310;11.214;2023-03-11T12:17:20;20.80;57.00
9987;DHT22;5033;46.310;11.214;2023-03-11T12:19:52;21.10;57.70
9987;DHT22;5033;46.310;11.214;2023-03-11T12:25:29;21.00;55.30
9987;DHT22;5033;46.310;11.214;2023-03-11T12:28:08;20.50;56.20
9987;DHT22;5033;46.310;11.214;2023-03-11T12:30:42;20.80;56.30
9987;DHT22;5033;46.310;11.214;2023-03-11T12:33:15;21.00;57.80
9987;DHT22;5033;46.310;11.214;2023-03-11T12:35:48;21.20;57.30
9987;DHT22;5033;46.310;11.214;2023-03-11T12:38:18;21.40;56.70
9987;DHT22;5033;46.310;11.214;2023-03-11T12:40:58;21.40;57.30
9987;DHT22;5033;46.310;11.214;2023-03-11T12:49:39;21.40;55.30
9987;DHT22;5033;46.310;11.214;2023-03-11T12:52:18;21.00;54.70
9987;DHT22;5033;46.310;11.214;2023-03-11T12:54:47;20.70;55.00
9987;DHT22;5033;46.310;11.214;2023-03-11T12:57:33;20.70;56.40
9987;DHT22;5033;46.310;11.214;2023-03-11T13:00:31;20.70;54.50
9987;DHT22;5033;46.310;11.214;2023-03-11T13:03:31;20.40;54.30
9987;DHT22;5033;46.310;11.214;2023-03-11T13:06:14;20.60;56.90
9987;DHT22;5033;46.310;11.214;2023-03-11T13:08:48;20.50;54.70
9987;DHT22;5033;46.310;11.214;2023-03-11T13:11:37;20.20;55.20
9987;DHT22;5033;46.310;11.214;2023-03-11T13:14:09;20.40;56.20
9987;DHT22;5033;46.310;11.214;2023-03-11T13:16:42;20.30;55.30
9987;DHT22;5033;46.310;11.214;2023-03-11T13:19:36;20.20;55.60
9987;DHT22;5033;46.310;11.214;2023-03-11T13:25:30;20.30;56.70
9987;DHT22;5033;46.310;11.214;2023-03-11T13:28:18;20.40;56.00
9987;DHT22;5033;46.310;11.214;2023-03-11T13:30:55;20.30;55.10
9987;DHT22;5033;46.310;11.214;2023-03-11T13:33:32;20.30;54.70
9987;DHT22;5033;46.310;11.214;2023-03-11T13:36:15;20.30;56.70
9987;DHT22;5033;46.310;11.214;2023-03-11T13:41:56;20.50;55.00
9987;DHT22;5033;46.310;11.214;2023-03-11T13:44:28;20.30;56.40
9987;DHT22;5033;46.310;11.214;2023-03-11T13:47:00;20.40;55.90
9987;DHT22;5033;46.310;11.214;2023-03-11T13:49:34;20.50;55.90
9987;DHT22;5033;46.310;11.214;2023-03-11T13:52:03;20.60;56.10
9987;DHT22;5033;46.310;11.214;2023-03-11T13:54:38;20.70;55.60
9987;DHT22;5033;46.310;11.214;2023-03-11T13:57:21;20.70;55.80
9987;DHT22;5033;46.310;11.214;2023-03-11T13:59:51;20.60;54.20
9987;DHT22;5033;46.310;11.214;2023-03-11T14:02:21;20.40;55.40
9987;DHT22;5033;46.310;11.214;2023-03-11T14:04:52;20.20;56.00
9987;DHT22;5033;46.310;11.214;2023-03-11T14:07:24;20.30;55.20
9987;DHT22;5033;46.310;11.214;2023-03-11T14:10:21;20.40;55.00
9987;DHT22;5033;46.310;11.214;2023-03-11T14:12:49;20.60;55.60
9987;DHT22;5033;46.310;11.214;2023-03-11T14:15:20;20.50;55.60
9987;DHT22;5033;46.310;11.214;2023-03-11T14:17:50;20.30;55.40
9987;DHT22;5033;46.310;11.214;2023-03-11T14:20:19;20.20;55.90
9987;DHT22;5033;46.310;11.214;2023-03-11T14:22:51;20.30;56.20
9987;DHT22;5033;46.310;11.214;2023-03-11T14:25:21;20.30;55.40
9987;DHT22;5033;46.310;11.214;2023-03-11T14:27:54;20.20;55.70
9987;DHT22;5033;46.310;11.214;2023-03-11T14:30:24;20.10;55.60
9987;DHT22;5033;46.310;11.214;2023-03-11T14:32:57;20.00;55.90
9987;DHT22;5033;46.310;11.214;2023-03-11T14:35:25;20.10;56.70
9987;DHT22;5033;46.310;11.214;2023-03-11T14:37:52;20.20;56.30
9987;DHT22;5033;46.310;11.214;2023-03-11T14:40:23;20.30;55.70
9987;DHT22;5033;46.310;11.214;2023-03-11T14:42:53;20.10;54.90
9987;DHT22;5033;46.310;11.214;2023-03-11T14:45:23;19.80;54.70
9987;DHT22;5033;46.310;11.214;2023-03-11T14:47:54;19.70;56.70
9987;DHT22;5033;46.310;11.214;2023-03-11T14:50:23;20.00;57.20
9987;DHT22;5033;46.310;11.214;2023-03-11T14:52:53;20.20;57.20
9987;DHT22;5033;46.310;11.214;2023-03-11T14:55:26;20.30;56.30
9987;DHT22;5033;46.310;11.214;2023-03-11T14:58:00;20.40;56.20
9987;DHT22;5033;46.310;11.214;2023-03-11T15:00:33;20.30;56.40
9987;DHT22;5033;46.310;11.214;2023-03-11T15:03:10;20.30;56.80
9987;DHT22;5033;46.310;11.214;2023-03-11T15:05:44;20.40;57.20
9987;DHT22;5033;46.310;11.214;2023-03-11T15:08:14;20.60;57.80
9987;DHT22;5033;46.310;11.214;2023-03-11T15:11:17;20.70;56.60
9987;DHT22;5033;46.310;11.214;2023-03-11T15:13:47;20.70;56.80
9987;DHT22;5033;46.310;11.214;2023-03-11T15:16:30;20.50;55.30
9987;DHT22;5033;46.310;11.214;2023-03-11T15:19:00;20.30;54.90
9987;DHT22;5033;46.310;11.214;2023-03-11T15:21:27;20.20;55.70
9987;DHT22;5033;46.310;11.214;2023-03-11T15:23:59;20.10;57.10
9987;DHT22;5033;46.310;11.214;2023-03-11T15:26:29;20.10;57.90
9987;DHT22;5033;46.310;11.214;2023-03-11T15:29:00;19.90;58.40
9987;DHT22;5033;46.310;11.214;2023-03-11T15:31:30;19.80;58.70
9987;DHT22;5033;46.310;11.214;2023-03-11T15:34:21;19.60;59.50
9987;DHT22;5033;46.310;11.214;2023-03-11T15:37:05;19.40;59.40
9987;DHT22;5033;46.310;11.214;2023-03-11T15:39:44;19.20;60.70
9987;DHT22;5033;46.310;11.214;2023-03-11T15:42:18;19.00;61.20
9987;DHT22;5033;46.310;11.214;2023-03-11T15:45:12;18.80;61.20
9987;DHT22;5033;46.310;11.214;2023-03-11T15:47:41;18.70;60.80
9987;DHT22;5033;46.310;11.214;2023-03-11T15:50:21;18.60;62.50
9987;DHT22;5033;46.310;11.214;2023-03-11T15:52:49;18.50;62.40
9987;DHT22;5033;46.310;11.214;2023-03-11T15:55:17;18.30;62.50
9987;DHT22;5033;46.310;11.214;2023-03-11T15:57:46;18.20;62.60
9987;DHT22;5033;46.310;11.214;2023-03-11T16:00:18;18.10;62.70
9987;DHT22;5033;46.310;11.214;2023-03-11T16:02:47;18.00;62.90
9987;DHT22;5033;46.310;11.214;2023-03-11T16:05:16;17.80;63.80
9987;DHT22;5033;46.310;11.214;2023-03-11T16:07:44;17.70;64.20
9987;DHT22;5033;46.310;11.214;2023-03-11T16:10:13;17.60;64.40
9987;DHT22;5033;46.310;11.214;2023-03-11T16:12:41;17.40;64.30
9987;DHT22;5033;46.310;11.214;2023-03-11T16:15:19;17.40;65.10
9987;DHT22;5033;46.310;11.214;2023-03-11T16:17:50;17.40;65.00
9987;DHT22;5033;46.310;11.214;2023-03-11T16:20:17;17.30;65.30
9987;DHT22;5033;46.310;11.214;2023-03-11T16:22:44;17.20;65.40
9987;DHT22;5033;46.310;11.214;2023-03-11T16:25:16;17.10;65.40
9987;DHT22;5033;46.310;11.214;2023-03-11T16:27:44;17.00;65.80
9987;DHT22;5033;46.310;11.214;2023-03-11T16:30:12;16.90;65.50
9987;DHT22;5033;46.310;11.214;2023-03-11T16:32:42;16.80;65.80